createdAt,value
2023-02-05T00:01:28.376Z,95184.25
2023-02-05T00:03:55.211Z,95188.50
2023-02-05T00:06:21.942Z,95187.50
2023-02-05T00:08:48.883Z,95192.69
2023-02-05T00:11:15.998Z,95154.38
2023-02-05T00:13:43.346Z,95191.84
2023-02-05T00:16:12.362Z,95200.22
2023-02-05T00:18:39.229Z,95191.91
2023-02-05T00:21:06.703Z,95196.94
2023-02-05T00:23:34.505Z,95198.88
2023-02-05T00:26:01.832Z,95195.59
2023-02-05T00:28:28.572Z,95197.06
2023-02-05T00:30:55.450Z,95203.84
2023-02-05T00:33:22.275Z,95211.56
2023-02-05T00:35:49.931Z,95208.25
2023-02-05T00:38:17.750Z,95214.38
2023-02-05T00:40:44.503Z,95202.72
2023-02-05T00:43:11.399Z,95206.13
2023-02-05T00:45:38.266Z,95211.78
2023-02-05T00:48:05.849Z,95220.69
2023-02-05T00:50:33.580Z,95223.22
2023-02-05T00:53:00.503Z,95224.25
2023-02-05T00:55:27.336Z,95222.19
2023-02-05T00:57:54.993Z,95217.47
2023-02-05T01:00:22.108Z,95203.75
2023-02-05T01:02:48.979Z,95216.44
2023-02-05T01:05:15.901Z,95209.72
2023-02-05T01:07:42.801Z,95223.31
2023-02-05T01:10:09.766Z,95222.28
2023-02-05T01:12:36.787Z,95228.63
2023-02-05T01:15:06.093Z,95221.72
2023-02-05T01:17:33.937Z,95211.19
2023-02-05T01:20:01.127Z,95226.72
2023-02-05T01:22:28.214Z,95217.69
2023-02-05T01:24:54.961Z,95223.53
2023-02-05T01:27:21.953Z,95225.88
2023-02-05T01:29:48.696Z,95234.03
2023-02-05T01:32:15.539Z,95207.78
2023-02-05T01:34:42.303Z,95236.78
2023-02-05T01:37:09.114Z,95231.59
2023-02-05T01:39:37.509Z,95233.25
2023-02-05T01:42:15.164Z,95242.78
2023-02-05T01:44:41.991Z,95238.34
2023-02-05T01:47:08.724Z,95236.78
2023-02-05T01:49:39.128Z,95236.56
2023-02-05T01:52:11.626Z,95253.06
2023-02-05T01:54:43.267Z,95249.44
2023-02-05T01:57:17.000Z,95244.00
2023-02-05T01:59:45.239Z,95235.84
2023-02-05T02:02:12.645Z,95246.88
2023-02-05T02:05:02.619Z,95253.69
2023-02-05T02:07:29.565Z,95253.19
2023-02-05T02:09:56.420Z,95254.44
2023-02-05T02:12:30.175Z,95254.16
2023-02-05T02:15:01.643Z,95249.69
2023-02-05T02:17:29.506Z,95254.63
2023-02-05T02:20:07.225Z,95262.59
2023-02-05T02:22:34.006Z,95261.47
2023-02-05T02:25:33.384Z,95269.78
2023-02-05T02:28:24.857Z,95258.34
2023-02-05T02:31:10.721Z,95268.94
2023-02-05T02:33:50.801Z,95267.97
2023-02-05T02:36:47.590Z,95264.91
2023-02-05T02:39:21.837Z,95270.16
2023-02-05T02:41:56.846Z,95270.00
2023-02-05T02:44:50.067Z,95278.50
2023-02-05T02:47:20.691Z,95280.66
2023-02-05T02:50:01.332Z,95272.38
2023-02-05T02:52:33.850Z,95278.72
2023-02-05T02:55:07.969Z,95285.50
2023-02-05T02:57:39.663Z,95279.91
2023-02-05T03:00:13.509Z,95280.44
2023-02-05T03:02:43.691Z,95283.25
2023-02-05T03:05:16.148Z,95288.31
2023-02-05T03:08:02.396Z,95299.56
2023-02-05T03:10:44.594Z,95302.88
2023-02-05T03:13:14.900Z,95301.13
2023-02-05T03:15:48.200Z,95298.22
2023-02-05T03:18:18.211Z,95303.34
2023-02-05T03:20:53.265Z,95304.31
2023-02-05T03:23:20.458Z,95306.09
2023-02-05T03:25:47.522Z,95307.41
2023-02-05T03:28:17.538Z,95312.47
2023-02-05T03:31:18.820Z,95313.69
2023-02-05T03:34:10.626Z,95313.75
2023-02-05T03:36:56.234Z,95315.56
2023-02-05T03:39:35.218Z,95316.19
2023-02-05T03:42:13.131Z,95323.50
2023-02-05T03:45:08.817Z,95321.97
2023-02-05T03:47:47.699Z,95317.47
2023-02-05T03:50:28.424Z,95314.13
2023-02-05T03:53:19.168Z,95322.59
2023-02-05T03:55:52.803Z,95321.97
2023-02-05T03:58:42.132Z,95340.53
2023-02-05T04:01:11.761Z,95336.88
2023-02-05T04:03:39.628Z,95341.53
2023-02-05T04:06:07.844Z,95338.00
2023-02-05T04:08:35.499Z,95344.13
2023-02-05T04:11:03.358Z,95345.75
2023-02-05T04:13:30.425Z,95340.91
2023-02-05T04:15:58.295Z,95352.38
2023-02-05T04:18:25.116Z,95341.63
2023-02-05T04:20:51.945Z,95340.59
2023-02-05T04:23:22.813Z,95344.63
2023-02-05T04:25:55.157Z,95346.34
2023-02-05T04:28:28.417Z,95335.19
2023-02-05T04:30:55.991Z,95338.00
2023-02-05T04:33:22.926Z,95352.84
2023-02-05T04:35:50.036Z,95356.63
2023-02-05T04:38:16.967Z,95347.78
2023-02-05T04:40:44.999Z,95356.16
2023-02-05T04:43:11.809Z,95351.09
2023-02-05T04:45:38.654Z,95362.47
2023-02-05T04:48:06.714Z,95364.16
2023-02-05T04:50:33.643Z,95365.16
2023-02-05T04:53:03.829Z,95365.94
2023-02-05T04:55:31.948Z,95364.28
2023-02-05T04:57:59.126Z,95375.25
2023-02-05T05:00:26.369Z,95373.59
2023-02-05T05:02:53.315Z,95376.84
2023-02-05T05:05:20.118Z,95378.16
2023-02-05T05:07:47.120Z,95387.91
2023-02-05T05:10:13.856Z,95379.50
2023-02-05T05:12:40.804Z,95383.81
2023-02-05T05:15:07.976Z,95384.75
2023-02-05T05:17:35.370Z,95394.03
2023-02-05T05:20:02.464Z,95388.34
2023-02-05T05:22:29.319Z,95386.84
2023-02-05T05:24:55.976Z,95393.50
2023-02-05T05:27:24.377Z,95399.69
2023-02-05T05:29:52.204Z,95398.72
2023-02-05T05:32:19.123Z,95416.34
2023-02-05T05:34:45.825Z,95413.03
2023-02-05T05:37:12.655Z,95418.47
2023-02-05T05:39:57.622Z,95416.44
2023-02-05T05:42:43.362Z,95419.59
2023-02-05T05:45:10.251Z,95410.81
2023-02-05T05:47:36.927Z,95428.75
2023-02-05T05:50:04.060Z,95418.25
2023-02-05T05:52:32.463Z,95437.53
2023-02-05T05:54:59.770Z,95436.31
2023-02-05T05:57:26.498Z,95443.41
2023-02-05T05:59:53.349Z,95434.16
2023-02-05T06:02:20.218Z,95443.03
2023-02-05T06:04:47.077Z,95437.44
2023-02-05T06:07:13.773Z,95433.47
2023-02-05T06:09:40.669Z,95458.25
2023-02-05T06:12:07.484Z,95454.44
2023-02-05T06:14:34.458Z,95456.47
2023-02-05T06:17:01.213Z,95458.00
2023-02-05T06:19:28.210Z,95455.03
2023-02-05T06:21:54.986Z,95461.56
2023-02-05T06:24:21.771Z,95462.75
2023-02-05T06:26:48.552Z,95474.44
2023-02-05T06:29:15.658Z,95478.34
2023-02-05T06:31:42.388Z,95478.06
2023-02-05T06:34:09.202Z,95491.50
2023-02-05T06:36:35.912Z,95500.09
2023-02-05T06:39:02.640Z,95505.41
2023-02-05T06:41:29.537Z,95491.41
2023-02-05T06:43:56.372Z,95493.19
2023-02-05T06:46:23.199Z,95498.13
2023-02-05T06:48:49.988Z,95494.94
2023-02-05T06:51:16.742Z,95507.84
2023-02-05T06:53:43.786Z,95504.47
2023-02-05T06:56:10.814Z,95513.53
2023-02-05T06:58:37.627Z,95512.16
2023-02-05T07:01:05.009Z,95512.19
2023-02-05T07:03:31.870Z,95511.84
2023-02-05T07:06:06.006Z,95512.69
2023-02-05T07:08:33.734Z,95516.91
2023-02-05T07:11:01.057Z,95527.72
2023-02-05T07:13:29.491Z,95531.56
2023-02-05T07:15:57.273Z,95540.97
2023-02-05T07:18:24.586Z,95534.22
2023-02-05T07:20:51.611Z,95532.72
2023-02-05T07:23:18.340Z,95551.25
2023-02-05T07:25:45.197Z,95537.88
2023-02-05T07:28:12.268Z,95541.69
2023-02-05T07:30:39.057Z,95543.22
2023-02-05T07:33:06.143Z,95547.69
2023-02-05T07:35:36.842Z,95550.75
2023-02-05T07:38:04.126Z,95551.41
2023-02-05T07:40:31.346Z,95541.50
2023-02-05T07:42:59.261Z,95535.88
2023-02-05T07:45:25.983Z,95555.03
2023-02-05T07:47:53.946Z,95553.88
2023-02-05T07:50:20.885Z,95561.69
2023-02-05T07:52:47.765Z,95555.03
2023-02-05T07:55:14.749Z,95562.19
2023-02-05T07:57:41.743Z,95566.81
2023-02-05T08:00:09.856Z,95566.22
2023-02-05T08:02:39.858Z,95567.50
2023-02-05T08:05:07.342Z,95576.47
2023-02-05T08:07:34.184Z,95572.34
2023-02-05T08:10:00.841Z,95578.06
2023-02-05T08:12:27.620Z,95576.94
2023-02-05T08:14:55.000Z,95580.19
2023-02-05T08:17:21.914Z,95578.94
2023-02-05T08:19:50.284Z,95582.34
2023-02-05T08:22:17.019Z,95588.88
2023-02-05T08:24:43.867Z,95565.72
2023-02-05T08:27:10.601Z,95590.22
2023-02-05T08:29:37.455Z,95590.94
2023-02-05T08:32:05.269Z,95601.41
2023-02-05T08:34:32.107Z,95590.59
2023-02-05T08:36:59.848Z,95598.72
2023-02-05T08:39:27.057Z,95600.59
2023-02-05T08:41:56.689Z,95597.19
2023-02-05T08:44:23.952Z,95602.00
2023-02-05T08:46:50.924Z,95592.47
2023-02-05T08:49:17.784Z,95604.50
2023-02-05T08:51:44.642Z,95593.94
2023-02-05T08:54:13.416Z,95595.03
2023-02-05T08:56:43.470Z,95606.28
2023-02-05T08:59:10.782Z,95602.44
2023-02-05T09:01:41.127Z,95609.75
2023-02-05T09:04:08.093Z,95609.84
2023-02-05T09:06:35.393Z,95613.56
2023-02-05T09:09:02.258Z,95618.50
2023-02-05T09:11:30.489Z,95625.50
2023-02-05T09:13:58.403Z,95608.72
2023-02-05T09:16:26.836Z,95615.81
2023-02-05T09:18:55.560Z,95629.59
2023-02-05T09:21:22.430Z,95627.75
2023-02-05T09:23:49.990Z,95626.19
2023-02-05T09:26:16.797Z,95631.47
2023-02-05T09:28:43.755Z,95631.44
2023-02-05T09:31:15.582Z,95634.56
2023-02-05T09:33:46.268Z,95633.13
2023-02-05T09:36:21.922Z,95644.00
2023-02-05T09:38:50.074Z,95646.50
2023-02-05T09:41:43.918Z,95642.00
2023-02-05T09:44:16.515Z,95653.41
2023-02-05T09:46:46.357Z,95648.50
2023-02-05T09:49:27.712Z,95642.88
2023-02-05T09:52:20.174Z,95646.94
2023-02-05T09:54:55.687Z,95644.66
2023-02-05T09:57:43.274Z,95647.47
2023-02-05T10:00:30.570Z,95639.88
2023-02-05T10:03:17.293Z,95646.75
2023-02-05T10:06:32.130Z,95642.97
2023-02-05T10:09:43.982Z,95641.31
2023-02-05T10:12:32.494Z,95643.50
2023-02-05T10:15:40.630Z,95648.72
2023-02-05T10:18:25.824Z,95655.81
2023-02-05T10:21:11.991Z,95658.47
2023-02-05T10:24:12.803Z,95652.50
2023-02-05T10:26:50.644Z,95655.03
2023-02-05T10:29:47.403Z,95651.53
2023-02-05T10:32:29.222Z,95648.91
2023-02-05T10:34:59.989Z,95659.16
2023-02-05T10:37:46.092Z,95651.00
2023-02-05T10:40:16.617Z,95660.50
2023-02-05T10:43:00.952Z,95653.41
2023-02-05T10:45:29.909Z,95652.22
2023-02-05T10:48:01.589Z,95656.25
2023-02-05T10:50:43.511Z,95658.41
2023-02-05T10:53:10.444Z,95655.88
2023-02-05T10:55:37.601Z,95650.41
2023-02-05T10:58:35.832Z,95637.72
2023-02-05T11:01:03.737Z,95650.41
2023-02-05T11:03:30.764Z,95652.75
2023-02-05T11:05:59.032Z,95648.59
2023-02-05T11:08:35.872Z,95651.75
2023-02-05T11:11:04.101Z,95662.88
2023-02-05T11:13:31.877Z,95657.81
2023-02-05T11:16:01.723Z,95655.91
2023-02-05T11:18:33.074Z,95653.31
2023-02-05T11:21:02.741Z,95652.09
2023-02-05T11:23:32.284Z,95662.00
2023-02-05T11:26:01.593Z,95660.63
2023-02-05T11:28:31.011Z,95657.03
2023-02-05T11:30:59.053Z,95665.16
2023-02-05T11:33:29.106Z,95663.88
2023-02-05T11:36:05.088Z,95654.53
2023-02-05T11:38:34.671Z,95649.50
2023-02-05T11:41:12.905Z,95652.19
2023-02-05T11:43:52.726Z,95643.53
2023-02-05T11:46:22.886Z,95653.47
2023-02-05T11:48:52.677Z,95651.59
2023-02-05T11:51:29.119Z,95650.25
2023-02-05T11:54:01.203Z,95649.06
2023-02-05T11:56:28.369Z,95649.06
2023-02-05T11:59:00.052Z,95655.22
2023-02-05T12:01:32.347Z,95658.75
2023-02-05T12:03:59.350Z,95646.84
2023-02-05T12:06:43.271Z,95645.84
2023-02-05T12:09:14.713Z,95637.69
2023-02-05T12:12:06.856Z,95657.63
2023-02-05T12:14:44.440Z,95649.25
2023-02-05T12:17:25.137Z,95647.59
2023-02-05T12:20:07.107Z,95656.00
2023-02-05T12:22:55.793Z,95654.41
2023-02-05T12:25:34.219Z,95652.81
2023-02-05T12:28:40.799Z,95643.69
2023-02-05T12:31:36.853Z,95650.41
2023-02-05T12:34:15.336Z,95655.22
2023-02-05T12:36:49.199Z,95655.22
2023-02-05T12:39:39.649Z,95643.75
2023-02-05T12:42:59.692Z,95669.75
2023-02-05T12:45:51.860Z,95669.41
2023-02-05T12:48:27.718Z,95672.88
2023-02-05T12:50:57.098Z,95676.56
2023-02-05T12:53:54.644Z,95657.88
2023-02-05T12:56:24.408Z,95659.13
2023-02-05T12:58:58.780Z,95663.13
2023-02-05T13:01:39.281Z,95660.53
2023-02-05T13:04:07.810Z,95658.72
2023-02-05T13:06:46.977Z,95660.78
2023-02-05T13:09:19.247Z,95649.41
2023-02-05T13:11:57.229Z,95659.63
2023-02-05T13:14:34.357Z,95662.38
2023-02-05T13:17:29.621Z,95660.81
2023-02-05T13:20:03.163Z,95660.81
2023-02-05T13:22:48.210Z,95663.25
2023-02-05T13:25:38.249Z,95658.22
2023-02-05T13:28:42.672Z,95658.66
2023-02-05T13:31:19.474Z,95657.03
2023-02-05T13:33:46.548Z,95660.16
2023-02-05T13:36:13.285Z,95658.59
2023-02-05T13:39:01.601Z,95645.25
2023-02-05T13:41:59.578Z,95662.38
2023-02-05T13:45:01.341Z,95664.78
2023-02-05T13:47:59.562Z,95670.03
2023-02-05T13:50:47.947Z,95670.41
2023-02-05T13:53:44.905Z,95671.00
2023-02-05T13:56:55.780Z,95669.97
2023-02-05T13:59:34.748Z,95671.50
2023-02-05T14:02:02.305Z,95668.25
2023-02-05T14:04:40.506Z,95680.19
2023-02-05T14:07:24.910Z,95668.59
2023-02-05T14:09:56.674Z,95680.47
2023-02-05T14:12:27.032Z,95678.25
2023-02-05T14:15:18.565Z,95684.22
2023-02-05T14:17:45.328Z,95691.06
2023-02-05T14:20:24.369Z,95685.13
2023-02-05T14:22:53.520Z,95686.41
2023-02-05T14:25:36.000Z,95694.72
2023-02-05T14:28:24.319Z,95687.38
2023-02-05T14:30:58.571Z,95666.22
2023-02-05T14:33:42.347Z,95696.09
2023-02-05T14:36:22.272Z,95694.88
2023-02-05T14:39:17.601Z,95689.78
2023-02-05T14:41:52.087Z,95699.19
2023-02-05T14:44:24.030Z,95701.53
2023-02-05T14:47:08.880Z,95687.88
2023-02-05T14:49:41.623Z,95688.69
2023-02-05T14:52:37.354Z,95692.16
2023-02-05T14:55:13.304Z,95696.69
2023-02-05T14:58:04.212Z,95696.97
2023-02-05T15:00:35.169Z,95700.91
2023-02-05T15:03:05.040Z,95693.53
2023-02-05T15:05:48.841Z,95693.38
2023-02-05T15:08:15.738Z,95705.94
2023-02-05T15:11:00.397Z,95715.22
2023-02-05T15:13:27.071Z,95716.13
2023-02-05T15:16:08.858Z,95716.31
2023-02-05T15:18:40.115Z,95728.13
2023-02-05T15:21:20.960Z,95728.00
2023-02-05T15:23:53.286Z,95735.56
2023-02-05T15:26:26.632Z,95741.00
2023-02-05T15:29:01.423Z,95748.59
2023-02-05T15:31:43.023Z,95739.13
2023-02-05T15:34:21.860Z,95740.75
2023-02-05T15:37:06.753Z,95739.31
2023-02-05T15:39:56.243Z,95744.94
2023-02-05T15:42:31.208Z,95735.31
2023-02-05T15:44:58.230Z,95738.22
2023-02-05T15:47:27.211Z,95744.00
2023-02-05T15:50:01.593Z,95744.41
2023-02-05T15:52:31.333Z,95746.38
2023-02-05T15:55:01.379Z,95733.72
2023-02-05T15:57:31.409Z,95742.91
2023-02-05T16:00:00.808Z,95742.28
2023-02-05T16:02:30.675Z,95743.97
2023-02-05T16:04:58.880Z,95744.38
2023-02-05T16:07:30.390Z,95739.84
2023-02-05T16:10:00.223Z,95748.41
2023-02-05T16:12:27.227Z,95761.13
2023-02-05T16:15:06.292Z,95751.06
2023-02-05T16:17:44.210Z,95754.75
2023-02-05T16:20:21.709Z,95759.78
2023-02-05T16:22:57.652Z,95745.19
2023-02-05T16:25:33.943Z,95759.31
2023-02-05T16:28:05.479Z,95763.09
2023-02-05T16:30:42.898Z,95767.56
2023-02-05T16:33:34.686Z,95758.97
2023-02-05T16:36:04.996Z,95759.19
2023-02-05T16:38:32.282Z,95758.84
2023-02-05T16:41:08.816Z,95756.88
2023-02-05T16:43:40.108Z,95764.22
2023-02-05T16:46:07.035Z,95759.72
2023-02-05T16:48:37.397Z,95772.78
2023-02-05T16:51:05.203Z,95765.78
2023-02-05T16:53:37.342Z,95767.41
2023-02-05T16:56:16.873Z,95761.38
2023-02-05T16:58:47.086Z,95757.84
2023-02-05T17:01:14.224Z,95764.06
2023-02-05T17:03:48.150Z,95763.59
2023-02-05T17:06:16.502Z,95762.78
2023-02-05T17:08:49.307Z,95770.13
2023-02-05T17:11:37.413Z,95774.47
2023-02-05T17:14:29.656Z,95765.38
2023-02-05T17:17:00.801Z,95769.97
2023-02-05T17:19:33.345Z,95776.84
2023-02-05T17:22:15.262Z,95776.75
2023-02-05T17:24:43.515Z,95774.22
2023-02-05T17:27:16.086Z,95773.25
2023-02-05T17:29:43.209Z,95764.00
2023-02-05T17:32:16.999Z,95765.94
2023-02-05T17:34:45.049Z,95764.69
2023-02-05T17:37:12.670Z,95761.25
2023-02-05T17:39:39.908Z,95758.75
2023-02-05T17:42:19.357Z,95759.47
2023-02-05T17:44:46.200Z,95757.56
2023-02-05T17:47:13.065Z,95757.31
2023-02-05T17:49:40.060Z,95760.44
2023-02-05T17:52:06.724Z,95762.06
2023-02-05T17:54:34.637Z,95770.03
2023-02-05T17:57:21.482Z,95756.22
2023-02-05T17:59:49.266Z,95763.09
2023-02-05T18:02:17.074Z,95770.31
2023-02-05T18:04:45.005Z,95760.56
2023-02-05T18:07:31.880Z,95770.09
2023-02-05T18:10:03.169Z,95767.84
2023-02-05T18:12:29.953Z,95767.06
2023-02-05T18:14:56.670Z,95765.50
2023-02-05T18:17:23.547Z,95776.56
2023-02-05T18:19:50.436Z,95767.88
2023-02-05T18:22:17.352Z,95768.53
2023-02-05T18:24:44.315Z,95768.56
2023-02-05T18:27:12.223Z,95772.72
2023-02-05T18:29:39.381Z,95771.41
2023-02-05T18:32:06.727Z,95772.38
2023-02-05T18:34:33.720Z,95766.44
2023-02-05T18:37:00.864Z,95769.50
2023-02-05T18:39:29.487Z,95768.13
2023-02-05T18:41:57.654Z,95777.69
2023-02-05T18:44:25.996Z,95773.63
2023-02-05T18:46:53.998Z,95772.53
2023-02-05T18:49:21.293Z,95772.38
2023-02-05T18:51:48.053Z,95770.41
2023-02-05T18:54:15.257Z,95771.59
2023-02-05T18:56:42.055Z,95769.78
2023-02-05T18:59:13.312Z,95774.03
2023-02-05T19:01:40.519Z,95779.03
2023-02-05T19:04:09.926Z,95778.88
2023-02-05T19:06:37.276Z,95774.31
2023-02-05T19:09:04.371Z,95770.78
2023-02-05T19:11:31.500Z,95779.25
2023-02-05T19:14:00.125Z,95770.50
2023-02-05T19:16:29.449Z,95770.09
2023-02-05T19:18:56.992Z,95772.59
2023-02-05T19:21:24.892Z,95773.31
2023-02-05T19:23:54.740Z,95774.03
2023-02-05T19:26:24.418Z,95777.28
2023-02-05T19:28:59.543Z,95776.50
2023-02-05T19:31:29.422Z,95774.03
2023-02-05T19:33:57.223Z,95788.19
2023-02-05T19:36:25.224Z,95778.44
2023-02-05T19:38:52.390Z,95773.63
2023-02-05T19:41:21.843Z,95783.59
2023-02-05T19:43:55.085Z,95782.03
2023-02-05T19:46:25.286Z,95767.78
2023-02-05T19:48:53.253Z,95785.06
2023-02-05T19:51:21.146Z,95785.91
2023-02-05T19:53:48.346Z,95782.22
2023-02-05T19:56:18.425Z,95778.22
2023-02-05T19:58:48.353Z,95778.81
2023-02-05T20:01:25.122Z,95780.00
2023-02-05T20:03:55.428Z,95783.03
2023-02-05T20:06:24.544Z,95794.88
2023-02-05T20:08:51.743Z,95789.53
2023-02-05T20:11:18.815Z,95792.41
2023-02-05T20:13:46.820Z,95767.09
2023-02-05T20:16:17.026Z,95793.16
2023-02-05T20:18:44.291Z,95792.19
2023-02-05T20:21:13.825Z,95796.91
2023-02-05T20:23:40.677Z,95803.47
2023-02-05T20:26:08.959Z,95800.00
2023-02-05T20:28:57.073Z,95804.16
2023-02-05T20:31:34.548Z,95809.31
2023-02-05T20:34:03.203Z,95812.09
2023-02-05T20:36:31.208Z,95809.56
2023-02-05T20:39:00.391Z,95809.56
2023-02-05T20:41:27.207Z,95811.75
2023-02-05T20:43:54.789Z,95819.09
2023-02-05T20:46:22.933Z,95816.31
2023-02-05T20:48:50.201Z,95810.50
2023-02-05T20:51:19.684Z,95815.97
2023-02-05T20:53:46.897Z,95813.09
2023-02-05T20:56:19.618Z,95823.81
2023-02-05T20:58:47.642Z,95830.25
2023-02-05T21:01:20.396Z,95813.38
2023-02-05T21:03:57.782Z,95824.25
2023-02-05T21:06:25.733Z,95830.59
2023-02-05T21:08:53.461Z,95824.25
2023-02-05T21:11:22.019Z,95829.00
2023-02-05T21:13:49.791Z,95820.50
2023-02-05T21:16:18.685Z,95813.41
2023-02-05T21:18:46.893Z,95809.50
2023-02-05T21:21:25.264Z,95825.81
2023-02-05T21:24:01.395Z,95834.81
2023-02-05T21:26:37.216Z,95831.38
2023-02-05T21:29:12.541Z,95832.41
2023-02-05T21:31:48.778Z,95827.13
2023-02-05T21:34:25.017Z,95826.25
2023-02-05T21:36:52.758Z,95832.72
2023-02-05T21:39:22.593Z,95842.69
2023-02-05T21:41:54.099Z,95841.66
2023-02-05T21:44:22.632Z,95832.59
2023-02-05T21:46:49.643Z,95837.34
2023-02-05T21:49:16.614Z,95832.78
2023-02-05T21:51:43.493Z,95820.28
2023-02-05T21:54:11.006Z,95845.50
2023-02-05T21:56:42.858Z,95838.94
2023-02-05T21:59:13.200Z,95845.59
2023-02-05T22:01:41.222Z,95846.78
2023-02-05T22:04:12.335Z,95851.25
2023-02-05T22:06:39.707Z,95849.44
2023-02-05T22:09:11.995Z,95854.78
2023-02-05T22:11:39.505Z,95844.25
2023-02-05T22:14:07.543Z,95853.50
2023-02-05T22:16:35.355Z,95869.34
2023-02-05T22:19:03.051Z,95859.47
2023-02-05T22:21:35.624Z,95860.78
2023-02-05T22:24:03.853Z,95868.63
2023-02-05T22:26:33.679Z,95870.25
2023-02-05T22:29:01.870Z,95864.16
2023-02-05T22:31:29.515Z,95871.75
2023-02-05T22:33:57.010Z,95862.00
2023-02-05T22:36:27.282Z,95858.16
2023-02-05T22:38:55.200Z,95858.31
2023-02-05T22:41:26.366Z,95869.91
2023-02-05T22:43:58.500Z,95873.78
2023-02-05T22:46:31.992Z,95867.31
2023-02-05T22:49:00.859Z,95878.47
2023-02-05T22:51:39.567Z,95875.03
2023-02-05T22:54:07.862Z,95869.97
2023-02-05T22:56:34.683Z,95854.31
2023-02-05T22:59:03.452Z,95859.84
2023-02-05T23:01:35.461Z,95854.50
2023-02-05T23:04:04.221Z,95854.00
2023-02-05T23:06:33.827Z,95850.50
2023-02-05T23:09:16.717Z,95857.78
2023-02-05T23:11:44.613Z,95859.16
2023-02-05T23:14:12.958Z,95858.91
2023-02-05T23:16:42.044Z,95844.34
2023-02-05T23:19:12.854Z,95849.75
2023-02-05T23:21:40.949Z,95840.75
2023-02-05T23:24:08.785Z,95854.72
2023-02-05T23:26:40.124Z,95843.31
2023-02-05T23:29:07.499Z,95852.59
2023-02-05T23:31:34.842Z,95844.78
2023-02-05T23:34:02.065Z,95858.56
2023-02-05T23:36:29.042Z,95855.94
2023-02-05T23:38:55.956Z,95854.22
2023-02-05T23:41:39.538Z,95856.69
2023-02-05T23:44:18.235Z,95854.00
2023-02-05T23:46:46.575Z,95840.97
2023-02-05T23:49:13.492Z,95849.53
2023-02-05T23:51:40.765Z,95857.19
2023-02-05T23:54:09.464Z,95850.38
2023-02-05T23:56:36.688Z,95863.06
2023-02-05T23:59:04.046Z,95853.31
